Time;durP1;ratioP1;P1;durP2;ratioP2;P2;SDS_P1;SDS_P2;PMS_P1;PMS_P2;Temp;Humidity;BMP_temperature;BMP_pressure;BME280_temperature;BME280_humidity;BME280_pressure;Samples;Min_cycle;Max_cycle;Signal;HPM_P1;HPM_P2
2021/08/02 00:01:04;;;;;;;26.00;17.50;;;;;;;21.70;98.29;98711.92;1745085;81;20937;-74
2021/08/02 00:03:43;;;;;;;25.85;16.15;;;;;;;21.74;97.76;98702.91;1744798;81;20992;-74
2021/08/02 00:06:11;;;;;;;24.07;15.65;;;;;;;21.78;97.38;98697.91;1744632;81;21144;-75
2021/08/02 00:08:39;;;;;;;27.35;15.75;;;;;;;21.80;96.87;98689.30;1727886;82;21519;-75
2021/08/02 00:11:07;;;;;;;28.62;15.25;;;;;;;21.82;96.58;98695.88;1755249;81;21447;-74
2021/08/02 00:13:35;;;;;;;29.72;15.63;;;;;;;21.82;96.32;98681.30;1759590;81;22137;-74
2021/08/02 00:16:06;;;;;;;21.60;14.50;;;;;;;21.84;96.16;98671.91;1761265;81;21085;-75
2021/08/02 00:18:34;;;;;;;16.67;13.25;;;;;;;21.88;95.85;98667.09;1762752;81;21175;-74
2021/08/02 00:21:05;;;;;;;21.97;14.47;;;;;;;21.92;95.18;98654.48;1762785;81;20886;-74
2021/08/02 00:23:32;;;;;;;20.17;14.10;;;;;;;21.95;94.92;98648.06;1763005;81;22028;-74
2021/08/02 00:26:02;;;;;;;19.17;13.22;;;;;;;21.99;94.53;98641.81;1762870;81;21493;-75
2021/08/02 00:28:30;;;;;;;20.45;13.90;;;;;;;22.02;94.34;98629.84;1762634;81;20969;-75
2021/08/02 00:30:59;;;;;;;20.88;13.80;;;;;;;22.03;94.52;98624.44;1762773;81;20938;-75
2021/08/02 00:33:26;;;;;;;22.20;13.65;;;;;;;22.00;94.51;98621.84;1762756;81;20930;-74
2021/08/02 00:36:47;;;;;;;23.65;13.38;;;;;;;21.97;94.65;98610.70;1760062;81;21405;-76
2021/08/02 00:39:40;;;;;;;18.95;13.40;;;;;;;21.91;94.83;98602.60;1762756;81;21501;-75
2021/08/02 00:42:32;;;;;;;17.80;12.25;;;;;;;21.79;95.01;98601.72;1762760;81;20929;-75
2021/08/02 00:45:20;;;;;;;17.60;11.75;;;;;;;21.77;94.94;98597.15;1762726;81;21506;-74
2021/08/02 00:48:02;;;;;;;15.93;12.47;;;;;;;21.80;94.57;98599.91;1762752;81;20997;-74
2021/08/02 00:50:41;;;;;;;22.25;12.47;;;;;;;21.85;94.17;98608.45;1762883;81;20951;-73
2021/08/02 00:53:14;;;;;;;22.45;12.53;;;;;;;21.88;93.66;98587.46;1763085;81;21060;-73
2021/08/02 00:55:49;;;;;;;17.98;11.88;;;;;;;21.92;93.43;98567.27;1735249;81;21045;-73
2021/08/02 00:58:21;;;;;;;21.10;12.70;;;;;;;21.94;93.32;98580.81;1762778;81;21127;-74
2021/08/02 01:00:48;;;;;;;16.10;11.50;;;;;;;21.89;93.24;98572.28;1762828;81;20997;-74
2021/08/02 01:03:16;;;;;;;17.95;12.35;;;;;;;21.87;93.20;98564.92;1763084;81;21016;-74
2021/08/02 01:05:47;;;;;;;17.90;12.37;;;;;;;21.85;93.18;98549.78;1762764;81;21583;-74
2021/08/02 01:08:27;;;;;;;13.72;12.15;;;;;;;21.76;93.31;98562.84;1763342;81;21085;-73
2021/08/02 01:10:58;;;;;;;21.75;12.63;;;;;;;21.69;93.73;98560.91;1761038;81;21123;-74
2021/08/02 01:13:31;;;;;;;23.02;13.30;;;;;;;21.59;93.76;98559.61;1757694;81;20998;-73
2021/08/02 01:16:04;;;;;;;17.92;13.28;;;;;;;21.51;94.44;98550.50;1759651;81;20930;-73
2021/08/02 01:18:33;;;;;;;19.67;13.62;;;;;;;21.45;94.58;98551.36;1759721;81;20930;-74
2021/08/02 01:21:09;;;;;;;20.48;14.20;;;;;;;21.37;94.90;98547.23;1759738;80;20991;-74
2021/08/02 01:23:37;;;;;;;23.77;14.98;;;;;;;21.29;95.45;98553.31;1759654;81;21146;-74
2021/08/02 01:26:22;;;;;;;18.75;14.00;;;;;;;21.22;96.28;98550.58;1759751;81;20965;-74
2021/08/02 01:29:46;;;;;;;16.05;14.07;;;;;;;21.18;96.69;98546.98;1736126;81;21028;-74
2021/08/02 01:32:17;;;;;;;19.60;14.38;;;;;;;21.13;97.02;98544.63;1760283;81;20895;-75
2021/08/02 01:34:44;;;;;;;;;;;;;;;21.07;97.48;98534.51;1742797;81;21444;-74
2021/08/02 01:37:12;;;;;;;20.12;15.25;;;;;;;21.01;98.02;98526.39;1759922;81;21540;-75
2021/08/02 01:39:44;;;;;;;24.10;15.00;;;;;;;20.93;98.39;98526.24;1759368;81;21044;-74
2021/08/02 01:42:10;;;;;;;21.40;14.63;;;;;;;20.88;98.90;98521.09;1759673;81;21548;-75
2021/08/02 01:44:37;;;;;;;25.62;14.95;;;;;;;20.85;99.37;98517.13;1759599;81;21505;-74
2021/08/02 01:47:28;;;;;;;27.40;14.90;;;;;;;20.82;99.72;98531.89;1731319;82;21499;-74
2021/08/02 01:50:19;;;;;;;26.93;15.50;;;;;;;20.79;99.86;98541.11;1729730;83;22215;-74
2021/08/02 01:53:03;;;;;;;25.48;15.30;;;;;;;20.76;100.00;98532.95;1730304;82;20901;-75
2021/08/02 01:55:32;;;;;;;24.35;14.68;;;;;;;20.73;100.00;98544.92;1730557;82;20916;-73
2021/08/02 01:58:04;;;;;;;24.30;15.63;;;;;;;20.73;100.00;98535.77;1730439;82;20897;-73
2021/08/02 02:00:37;;;;;;;23.38;14.05;;;;;;;20.72;100.00;98533.58;1730110;82;20916;-73
2021/08/02 02:03:18;;;;;;;20.57;15.28;;;;;;;20.70;100.00;98538.77;1702677;84;21105;-74
2021/08/02 02:05:55;;;;;;;20.35;15.65;;;;;;;20.68;100.00;98555.11;1702815;83;21471;-74
2021/08/02 02:08:32;;;;;;;24.60;16.48;;;;;;;20.69;100.00;98564.27;1682799;85;21491;-74
2021/08/02 02:11:01;;;;;;;25.90;16.27;;;;;;;20.71;100.00;98578.60;1656154;86;20965;-75
2021/08/02 02:13:41;;;;;;;23.27;18.32;;;;;;;20.72;100.00;98588.55;1700995;83;21453;-74
2021/08/02 02:16:09;;;;;;;34.10;16.73;;;;;;;20.73;100.00;98584.57;1701380;83;21480;-74
2021/08/02 02:18:39;;;;;;;37.20;16.67;;;;;;;20.72;100.00;98581.59;1701299;83;20881;-74
2021/08/02 02:21:06;;;;;;;25.92;16.15;;;;;;;20.73;100.00;98582.58;1701312;84;20937;-74
2021/08/02 02:23:32;;;;;;;26.55;16.17;;;;;;;20.74;100.00;98583.37;1670133;84;21001;-74
2021/08/02 02:25:59;;;;;;;22.75;17.02;;;;;;;20.76;100.00;98587.94;1701269;83;20968;-74
2021/08/02 02:28:26;;;;;;;22.02;16.05;;;;;;;20.76;100.00;98587.34;1670102;84;21984;-73
2021/08/02 02:30:56;;;;;;;26.62;16.02;;;;;;;20.79;100.00;98596.09;1700977;83;20905;-74
2021/08/02 02:33:23;;;;;;;26.02;16.30;;;;;;;20.80;100.00;98608.20;1701318;83;21400;-73
2021/08/02 02:35:50;;;;;;;24.18;16.50;;;;;;;20.80;100.00;98613.02;1701282;84;20995;-74
2021/08/02 02:38:17;;;;;;;28.65;17.42;;;;;;;20.81;100.00;98620.16;1701557;83;21546;-74
2021/08/02 02:40:44;;;;;;;23.45;16.67;;;;;;;20.82;100.00;98633.70;1701229;83;21923;-73
2021/08/02 02:43:13;;;;;;;22.73;16.82;;;;;;;20.82;100.00;98642.06;1701284;83;20905;-73
2021/08/02 02:45:41;;;;;;;26.75;16.10;;;;;;;20.83;100.00;98649.23;1701202;84;20985;-73
2021/08/02 02:48:08;;;;;;;28.55;16.90;;;;;;;20.85;100.00;98638.47;1701558;84;20976;-73
2021/08/02 02:50:35;;;;;;;28.73;16.80;;;;;;;20.87;100.00;98643.64;1701191;83;20920;-73
2021/08/02 02:53:03;;;;;;;21.40;17.27;;;;;;;20.89;100.00;98651.00;1701479;84;21683;-73
2021/08/02 02:55:31;;;;;;;21.82;15.83;;;;;;;20.92;100.00;98657.16;1701277;84;20849;-73
2021/08/02 02:57:57;;;;;;;22.50;16.82;;;;;;;20.93;100.00;98653.97;1693179;84;20980;-73
2021/08/02 03:00:24;;;;;;;18.70;15.03;;;;;;;20.95;100.00;98639.02;1701248;84;20945;-73
2021/08/02 03:02:54;;;;;;;25.75;16.05;;;;;;;20.96;100.00;98623.06;1701277;84;21504;-74
2021/08/02 03:05:22;;;;;;;19.00;14.07;;;;;;;21.00;100.00;98596.73;1701226;84;21127;-74
2021/08/02 03:07:56;;;;;;;24.87;15.78;;;;;;;21.06;100.00;98576.97;1701263;83;20937;-74
2021/08/02 03:10:26;;;;;;;19.42;15.72;;;;;;;21.12;100.00;98580.12;1694186;82;21405;-74
2021/08/02 03:12:53;;;;;;;20.75;15.13;;;;;;;21.19;100.00;98568.11;1745717;81;20896;-76
2021/08/02 03:15:20;;;;;;;18.40;14.15;;;;;;;21.24;100.00;98556.55;1755896;80;20908;-75
2021/08/02 03:17:47;;;;;;;19.90;14.03;;;;;;;21.27;100.00;98558.51;1758245;80;21048;-76
2021/08/02 03:20:15;;;;;;;18.67;13.78;;;;;;;21.32;100.00;98558.07;1748083;82;20884;-75
2021/08/02 03:22:47;;;;;;;18.65;13.13;;;;;;;21.36;100.00;98554.05;1748085;82;21479;-74
2021/08/02 03:25:36;;;;;;;18.45;13.18;;;;;;;21.40;99.74;98552.59;1748682;82;20932;-74
2021/08/02 03:28:14;;;;;;;22.25;13.83;;;;;;;21.43;99.58;98554.56;1748041;82;20933;-75
2021/08/02 03:30:42;;;;;;;23.98;15.45;;;;;;;21.47;99.35;98556.72;1752847;80;21073;-75
2021/08/02 03:33:14;;;;;;;28.12;15.05;;;;;;;21.53;98.71;98560.66;1761538;80;20975;-76
2021/08/02 03:35:43;;;;;;;19.73;14.78;;;;;;;21.59;98.40;98556.81;1747933;82;21478;-74
2021/08/02 03:38:14;;;;;;;22.32;14.87;;;;;;;21.64;97.95;98544.59;1776158;80;21534;-78
2021/08/02 03:40:42;;;;;;;19.95;15.23;;;;;;;21.69;98.04;98531.58;1754451;80;20928;-79
2021/08/02 03:43:09;;;;;;;20.25;14.00;;;;;;;21.74;98.05;98510.18;1769871;80;21132;-76
2021/08/02 03:45:36;;;;;;;22.25;14.83;;;;;;;21.78;98.10;98519.12;1746520;80;21293;-76
2021/08/02 03:48:03;;;;;;;17.62;13.90;;;;;;;21.79;97.92;98537.47;1778811;80;21434;-76
2021/08/02 03:50:32;;;;;;;25.05;14.38;;;;;;;21.83;97.59;98534.83;1778085;80;20924;-75
2021/08/02 03:52:59;;;;;;;20.10;14.58;;;;;;;21.88;97.16;98529.39;1769408;80;20955;-75
2021/08/02 03:55:26;;;;;;;21.82;13.68;;;;;;;21.94;97.00;98529.13;1759386;80;21133;-76
2021/08/02 03:57:52;;;;;;;21.25;13.32;;;;;;;22.00;96.65;98520.45;1762688;80;20888;-76
2021/08/02 04:00:22;;;;;;;24.70;14.53;;;;;;;22.05;96.51;98513.03;1758648;80;20876;-76
2021/08/02 04:02:49;;;;;;;18.52;12.63;;;;;;;22.08;96.45;98512.20;1770373;80;20928;-77
2021/08/02 04:05:18;;;;;;;19.27;13.68;;;;;;;22.11;95.62;98500.19;1762804;80;20887;-75
2021/08/02 04:07:45;;;;;;;28.30;13.95;;;;;;;22.14;95.10;98493.76;1776917;80;21137;-75
2021/08/02 04:10:12;;;;;;;28.05;13.38;;;;;;;22.16;95.06;98491.95;1767250;80;20880;-73
2021/08/02 04:12:39;;;;;;;20.20;13.85;;;;;;;22.17;94.79;98501.31;1752761;80;20995;-74
2021/08/02 04:15:09;;;;;;;19.23;13.30;;;;;;;22.19;94.36;98507.87;1740812;82;20944;-76
2021/08/02 04:17:36;;;;;;;20.32;12.55;;;;;;;22.20;94.34;98526.23;1740535;82;20924;-74
2021/08/02 04:20:06;;;;;;;20.25;12.00;;;;;;;22.22;94.56;98509.84;1758141;81;21994;-76
2021/08/02 04:22:33;;;;;;;25.35;16.73;;;;;;;22.21;94.54;98516.64;1759136;81;20992;-73
2021/08/02 04:25:00;;;;;;;47.80;30.97;;;;;;;22.19;94.47;98498.09;1764446;80;20941;-74
2021/08/02 04:27:26;;;;;;;56.10;35.43;;;;;;;22.17;94.56;98485.14;1771513;81;20931;-76
2021/08/02 04:29:54;;;;;;;29.02;20.60;;;;;;;22.13;94.76;98485.80;1771067;81;20908;-84
2021/08/02 04:32:21;;;;;;;20.05;15.23;;;;;;;22.14;95.04;98478.39;1770239;81;21493;-75
2021/08/02 04:34:47;;;;;;;21.95;15.25;;;;;;;22.12;95.68;98451.46;1769478;81;21261;-74
2021/08/02 04:37:14;;;;;;;26.02;15.48;;;;;;;22.10;96.13;98437.12;1769896;81;21098;-72
2021/08/02 04:39:41;;;;;;;24.82;15.55;;;;;;;22.05;96.98;98439.77;1769938;80;20967;-74
2021/08/02 04:42:08;;;;;;;21.77;15.28;;;;;;;21.98;97.52;98427.26;1770613;81;21689;-73
2021/08/02 04:44:35;;;;;;;29.10;14.80;;;;;;;21.94;97.80;98438.32;1771729;80;21963;-72
2021/08/02 04:47:03;;;;;;;25.65;16.52;;;;;;;21.91;98.63;98434.97;1765790;80;21032;-74
2021/08/02 04:49:30;;;;;;;26.80;17.23;;;;;;;21.88;99.01;98434.41;1748770;81;20992;-75
2021/08/02 04:51:57;;;;;;;32.23;19.05;;;;;;;21.86;99.48;98426.44;1739766;82;20979;-73
2021/08/02 04:54:25;;;;;;;28.05;20.08;;;;;;;21.87;99.70;98423.05;1738830;82;20900;-74
2021/08/02 04:56:53;;;;;;;30.95;20.70;;;;;;;21.89;99.85;98420.63;1739119;82;20991;-80
2021/08/02 04:59:20;;;;;;;23.57;17.73;;;;;;;21.92;99.79;98423.37;1749901;81;20916;-72
2021/08/02 05:01:47;;;;;;;32.73;19.40;;;;;;;21.97;99.81;98421.48;1689214;84;21009;-73
2021/08/02 05:04:13;;;;;;;21.82;17.27;;;;;;;22.02;99.62;98421.05;1744572;82;21875;-74
2021/08/02 05:06:40;;;;;;;30.05;18.85;;;;;;;22.08;99.56;98408.80;1744697;82;22210;-76
2021/08/02 05:09:06;;;;;;;23.45;17.70;;;;;;;22.14;99.63;98415.50;1744353;82;21169;-69
2021/08/02 05:11:33;;;;;;;25.15;17.32;;;;;;;22.19;99.41;98424.81;1749412;81;20929;-73
2021/08/02 05:14:01;;;;;;;24.57;16.27;;;;;;;22.24;98.87;98421.55;1765947;81;21023;-73
2021/08/02 05:16:29;;;;;;;24.25;16.90;;;;;;;;;;1765788;80;21554;-73
2021/08/02 05:18:57;;;;;;;20.62;17.32;;;;;;;22.31;97.85;98411.67;1765599;81;21229;-73
2021/08/02 05:21:24;;;;;;;25.12;18.23;;;;;;;22.33;97.64;98423.22;1765677;81;21115;-72
2021/08/02 05:23:50;;;;;;;25.15;16.80;;;;;;;22.38;97.71;98421.35;1765972;80;20935;-73
2021/08/02 05:26:17;;;;;;;23.87;18.45;;;;;;;22.41;96.16;98412.73;1763880;80;21031;-73
2021/08/02 05:28:44;;;;;;;46.37;29.60;;;;;;;22.46;95.65;98404.47;1750004;82;20975;-72
2021/08/02 05:31:10;;;;;;;65.67;31.40;;;;;;;22.52;95.22;98414.75;1750013;82;21034;-72
2021/08/02 05:33:37;;;;;;;50.12;28.83;;;;;;;22.60;94.08;98424.59;1750186;81;21312;-70
2021/08/02 05:36:04;;;;;;;48.40;24.80;;;;;;;22.68;94.11;98427.46;1764479;80;22268;-73
2021/08/02 05:38:31;;;;;;;53.95;23.77;;;;;;;22.77;93.06;98428.93;1764794;79;22230;-72
2021/08/02 05:40:58;;;;;;;47.67;18.02;;;;;;;22.83;92.63;98437.84;1759786;80;21022;-73
2021/08/02 05:43:25;;;;;;;33.20;16.87;;;;;;;22.90;92.07;98443.33;1766058;80;22224;-72
2021/08/02 05:45:52;;;;;;;25.32;14.30;;;;;;;22.98;90.22;98455.20;1750182;81;21054;-72
2021/08/02 05:48:19;;;;;;;31.02;16.30;;;;;;;22.99;89.61;98456.17;1750459;81;20977;-72
2021/08/02 05:50:45;;;;;;;30.55;15.83;;;;;;;23.00;89.94;98445.16;1749963;82;20978;-71
2021/08/02 05:53:12;;;;;;;32.98;16.37;;;;;;;23.08;89.91;98453.44;1750708;82;21006;-72
2021/08/02 05:55:39;;;;;;;37.80;16.30;;;;;;;23.20;90.04;98448.61;1754626;80;20935;-72
2021/08/02 05:58:06;;;;;;;33.65;16.60;;;;;;;23.36;89.24;98448.11;1763585;80;21152;-73
2021/08/02 06:00:32;;;;;;;20.80;14.47;;;;;;;23.54;88.83;98452.02;1750265;82;21411;-72
2021/08/02 06:02:59;;;;;;;25.82;14.63;;;;;;;23.73;88.29;98457.42;1750395;82;20999;-72
2021/08/02 06:05:26;;;;;;;44.23;16.75;;;;;;;23.92;86.00;98447.44;1769301;80;20986;-72
2021/08/02 06:07:53;;;;;;;52.95;15.72;;;;;;;24.06;85.41;98449.95;1781274;80;20849;-72
2021/08/02 06:10:19;;;;;;;32.67;15.00;;;;;;;24.20;83.39;98451.05;1756271;80;21954;-72
2021/08/02 06:12:46;;;;;;;32.38;15.63;;;;;;;24.32;82.23;98451.80;1733971;80;20985;-72
2021/08/02 06:15:12;;;;;;;24.27;14.38;;;;;;;24.39;82.28;98455.05;1744387;82;20890;-72
2021/08/02 06:17:39;;;;;;;18.57;13.15;;;;;;;24.49;81.32;98458.84;1744346;82;21064;-73
2021/08/02 06:20:08;;;;;;;24.07;13.80;;;;;;;24.59;81.81;98436.77;1744623;81;20925;-71
2021/08/02 06:22:35;;;;;;;26.90;14.05;;;;;;;24.70;80.92;98442.92;1744434;82;21141;-72
2021/08/02 06:25:02;;;;;;;30.68;14.55;;;;;;;24.74;79.05;98429.59;1745327;82;20929;-70
2021/08/02 06:27:32;;;;;;;28.95;14.68;;;;;;;24.69;78.86;98435.73;1744433;82;20977;-73
2021/08/02 06:30:01;;;;;;;26.73;13.93;;;;;;;24.68;80.16;98436.95;1744595;81;22392;-72
2021/08/02 06:32:28;;;;;;;19.37;13.65;;;;;;;24.75;78.64;98432.58;1744919;82;21571;-73
2021/08/02 06:34:55;;;;;;;36.33;15.78;;;;;;;24.86;78.45;98440.09;1745813;82;21404;-73
2021/08/02 06:37:23;;;;;;;52.45;16.45;;;;;;;25.03;77.55;98441.53;1745663;81;20878;-72
2021/08/02 06:39:50;;;;;;;39.23;14.75;;;;;;;25.20;76.97;98447.31;1745787;81;21037;-73
2021/08/02 06:42:17;;;;;;;19.25;12.18;;;;;;;25.39;76.47;98445.63;1745680;81;20934;-72
2021/08/02 06:44:44;;;;;;;17.73;10.75;;;;;;;25.55;73.57;98439.94;1745823;81;21016;-75
2021/08/02 06:47:10;;;;;;;15.48;11.50;;;;;;;25.66;72.50;98451.09;1745721;82;21465;-76
2021/08/02 06:49:37;;;;;;;16.23;9.75;;;;;;;25.79;72.46;98439.11;1734906;82;20886;-74
2021/08/02 06:52:04;;;;;;;17.45;9.83;;;;;;;25.92;69.54;98434.32;1737052;81;20881;-74
2021/08/02 06:54:31;;;;;;;16.65;9.73;;;;;;;26.00;67.70;98428.02;1742802;82;20964;-72
2021/08/02 06:56:57;;;;;;;16.75;9.78;;;;;;;26.08;67.53;98428.59;1745651;82;21048;-72
2021/08/02 06:59:24;;;;;;;16.12;9.25;;;;;;;26.16;67.31;98435.59;1719338;82;21488;-72
2021/08/02 07:01:50;;;;;;;16.57;9.55;;;;;;;26.27;66.51;98428.23;1723332;82;20933;-72
2021/08/02 07:04:17;;;;;;;15.40;8.85;;;;;;;26.38;66.69;98434.97;1716133;83;21016;-73
2021/08/02 07:06:44;;;;;;;17.87;9.43;;;;;;;26.48;64.68;98433.86;1715945;83;20944;-72
2021/08/02 07:09:12;;;;;;;17.20;9.88;;;;;;;26.58;65.82;98429.89;1715968;83;20993;-73
2021/08/02 07:11:38;;;;;;;17.07;8.80;;;;;;;26.70;64.61;98437.55;1715927;83;21735;-72
2021/08/02 07:14:05;;;;;;;14.87;8.65;;;;;;;26.86;65.58;98443.05;1733413;82;21475;-73
2021/08/02 07:16:31;;;;;;;18.50;8.80;;;;;;;27.04;63.93;98457.98;1749533;81;21005;-74
2021/08/02 07:18:58;;;;;;;18.90;8.25;;;;;;;27.18;62.86;98451.06;1762809;81;20972;-74
2021/08/02 07:21:25;;;;;;;11.80;8.55;;;;;;;27.30;63.20;98452.45;1763037;81;21388;-74
2021/08/02 07:23:52;;;;;;;13.72;8.83;;;;;;;27.45;62.45;98455.56;1762781;81;22196;-74
2021/08/02 07:26:20;;;;;;;15.83;7.58;;;;;;;27.59;61.49;98457.91;1762879;81;20917;-74
2021/08/02 07:28:47;;;;;;;10.93;7.33;;;;;;;27.73;60.43;98457.24;1762850;81;20889;-75
2021/08/02 07:31:15;;;;;;;18.62;7.78;;;;;;;27.83;58.47;98458.86;1763275;81;20893;-74
2021/08/02 07:33:42;;;;;;;12.88;7.55;;;;;;;27.92;57.92;98464.58;1763575;81;20980;-72
2021/08/02 07:36:09;;;;;;;11.83;6.58;;;;;;;28.02;57.02;98455.55;1764108;81;21503;-73
2021/08/02 07:38:36;;;;;;;12.98;7.08;;;;;;;28.10;57.79;98453.42;1754909;81;21456;-72
2021/08/02 07:41:03;;;;;;;13.53;6.92;;;;;;;28.22;56.14;98456.82;1754995;81;21412;-72
2021/08/02 07:43:29;;;;;;;9.68;7.03;;;;;;;28.34;54.69;98461.41;1698028;83;20960;-73
2021/08/02 07:45:56;;;;;;;13.35;7.20;;;;;;;28.42;55.78;98473.38;1733603;82;20836;-72
2021/08/02 07:48:23;;;;;;;12.78;6.97;;;;;;;28.54;55.05;98475.94;1737175;81;21488;-72
2021/08/02 07:50:50;;;;;;;15.23;6.87;;;;;;;28.67;54.48;98480.88;1735787;81;20972;-73
2021/08/02 07:53:16;;;;;;;13.13;6.28;;;;;;;28.79;53.33;98479.20;1725361;83;21492;-73
2021/08/02 07:55:44;;;;;;;12.15;6.00;;;;;;;28.84;51.05;98471.56;1763810;81;21428;-74
2021/08/02 07:58:11;;;;;;;13.38;6.72;;;;;;;28.91;50.19;98485.37;1706721;83;20992;-73
2021/08/02 08:00:38;;;;;;;9.43;5.75;;;;;;;28.97;51.02;98482.72;1763827;81;21129;-73
2021/08/02 08:03:05;;;;;;;10.95;6.50;;;;;;;29.06;50.33;98489.81;1725123;83;20893;-72
2021/08/02 08:05:32;;;;;;;18.87;6.92;;;;;;;29.20;50.41;98488.61;1764065;81;20886;-73
2021/08/02 08:08:00;;;;;;;15.28;5.90;;;;;;;29.37;49.56;98489.74;1725098;83;20913;-73
2021/08/02 08:10:27;;;;;;;14.95;6.05;;;;;;;29.57;48.07;98488.05;1764145;81;20889;-71
2021/08/02 08:12:54;;;;;;;13.03;5.55;;;;;;;29.74;47.24;98487.13;1721059;82;21669;-77
2021/08/02 08:15:22;;;;;;;9.93;5.70;;;;;;;30.02;47.32;98493.59;1716558;83;21491;-75
2021/08/02 08:17:51;;;;;;;16.73;6.60;;;;;;;30.29;46.39;98488.50;1716695;83;20938;-70
2021/08/02 08:20:22;;;;;;;9.78;5.28;;;;;;;30.55;47.50;98492.53;1716626;83;20996;-77
2021/08/02 08:22:49;;;;;;;6.80;5.35;;;;;;;30.76;44.44;98489.32;1714547;83;21534;-77
2021/08/02 08:25:16;;;;;;;10.32;5.85;;;;;;;30.88;44.39;98489.74;1708847;83;21010;-77
2021/08/02 08:27:42;;;;;;;17.10;6.55;;;;;;;30.96;45.12;98485.14;1758063;80;21023;-80
2021/08/02 08:30:10;;;;;;;13.40;5.80;;;;;;;31.08;44.53;98486.98;1729925;82;20909;-76
2021/08/02 08:32:37;;;;;;;7.83;5.30;;;;;;;31.18;44.28;98472.94;1720838;83;20904;-75
2021/08/02 08:35:06;;;;;;;13.30;5.65;;;;;;;31.34;44.17;98473.91;1683213;84;20928;-75
2021/08/02 08:37:33;;;;;;;17.57;5.75;;;;;;;31.43;43.53;98483.78;1686614;84;21153;-76
2021/08/02 08:39:59;;;;;;;12.40;6.15;;;;;;;31.45;42.55;98481.25;1754842;80;21014;-76
2021/08/02 08:42:25;;;;;;;16.48;6.03;;;;;;;31.48;43.54;98493.05;1746881;82;21651;-77
2021/08/02 08:44:53;;;;;;;13.90;5.12;;;;;;;31.66;44.36;98489.93;1745503;82;21045;-76
2021/08/02 08:47:20;;;;;;;12.65;5.90;;;;;;;31.88;42.32;98508.05;1715040;82;21563;-76
2021/08/02 08:49:47;;;;;;;14.50;5.25;;;;;;;31.98;42.57;98496.14;1693766;83;21156;-72
2021/08/02 08:52:14;;;;;;;13.15;5.62;;;;;;;32.24;42.34;98504.14;1701676;83;20989;-73
2021/08/02 08:54:42;;;;;;;11.05;5.22;;;;;;;32.39;41.56;98501.43;1769590;80;21083;-74
2021/08/02 08:57:11;;;;;;;11.60;5.20;;;;;;;32.45;41.67;98507.21;1708786;83;21487;-75
2021/08/02 08:59:52;;;;;;;17.90;8.83;;;;;;;32.37;43.11;98515.97;1708524;83;22240;-73
2021/08/02 09:02:25;;;;;;;9.80;5.90;;;;;;;32.15;41.77;98515.70;1716927;83;21796;-75
2021/08/02 09:04:57;;;;;;;14.03;7.90;;;;;;;31.80;43.13;98518.98;1687647;85;22204;-75
2021/08/02 09:07:43;;;;;;;16.12;7.75;;;;;;;31.63;43.65;98515.01;1716708;83;21551;-77
2021/08/02 09:10:16;;;;;;;15.63;5.97;;;;;;;31.64;43.12;98520.83;1687622;85;21587;-75
2021/08/02 09:12:56;;;;;;;9.50;5.65;;;;;;;31.59;43.54;98525.75;1719519;82;21042;-75
2021/08/02 09:15:42;;;;;;;9.35;5.62;;;;;;;31.47;44.91;98532.59;1695586;83;21139;-70
2021/08/02 09:18:17;;;;;;;9.15;5.50;;;;;;;31.29;45.03;98534.11;1674525;83;21552;-70
2021/08/02 09:20:44;;;;;;;12.43;5.78;;;;;;;31.03;45.68;98530.14;1686071;83;21532;-69
2021/08/02 09:23:14;;;;;;;10.23;5.97;;;;;;;30.75;45.89;98537.33;1686514;85;20934;-72
2021/08/02 09:25:52;;;;;;;13.10;6.53;;;;;;;30.55;46.88;98537.06;1708242;83;20918;-71
2021/08/02 09:28:23;;;;;;;12.13;5.90;;;;;;;30.50;46.86;98540.53;1738484;82;20924;-70
2021/08/02 09:31:02;;;;;;;9.53;6.15;;;;;;;30.73;47.89;98546.92;1731889;82;20912;-72
2021/08/02 09:33:44;;;;;;;17.57;5.92;;;;;;;31.18;45.95;98553.73;1734868;82;21411;-71
2021/08/02 09:36:12;;;;;;;14.25;5.70;;;;;;;31.26;44.92;98557.75;1707655;84;20952;-71
2021/08/02 09:38:39;;;;;;;10.80;5.50;;;;;;;30.85;45.10;98557.28;1708195;84;20971;-66
2021/08/02 09:41:05;;;;;;;11.63;6.12;;;;;;;30.32;46.61;98551.88;1707400;84;21806;-70
2021/08/02 09:43:34;;;;;;;12.78;5.90;;;;;;;29.86;47.99;98556.11;1710118;82;20968;-70
2021/08/02 09:46:03;;;;;;;15.05;5.92;;;;;;;29.50;49.03;98560.45;1722506;82;21026;-72
2021/08/02 09:48:43;;;;;;;8.90;5.50;;;;;;;29.35;50.47;98567.94;1708723;83;21044;-71
2021/08/02 09:51:14;;;;;;;8.17;4.87;;;;;;;29.35;50.64;98573.59;1733375;82;21031;-70
2021/08/02 09:53:47;;;;;;;12.88;4.80;;;;;;;29.53;49.74;98577.11;1708744;83;21098;-71
2021/08/02 09:56:20;;;;;;;5.85;4.58;;;;;;;29.69;48.98;98580.29;1708624;83;21021;-68
2021/08/02 09:58:47;;;;;;;9.03;4.45;;;;;;;29.76;48.88;98588.47;1708681;84;20875;-68
2021/08/02 10:01:17;;;;;;;9.05;4.80;;;;;;;29.76;49.07;98585.02;1708802;83;21431;-67
2021/08/02 10:03:44;;;;;;;19.10;6.20;;;;;;;29.81;48.99;98581.57;1709099;83;20921;-67
2021/08/02 10:06:14;;;;;;;12.33;4.85;;;;;;;30.00;47.89;98579.58;1708715;83;21178;-67
2021/08/02 10:08:43;;;;;;;23.50;6.40;;;;;;;30.09;47.65;98583.80;1709627;82;21409;-69
2021/08/02 10:11:09;;;;;;;14.20;5.28;;;;;;;30.14;46.72;98576.09;1738291;82;22285;-69
2021/08/02 10:13:42;;;;;;;98.12;21.30;;;;;;;30.25;47.06;98571.38;1737541;82;20989;-70
2021/08/02 10:16:14;;;;;;;237.35;50.60;;;;;;;30.34;47.39;98572.01;1738154;82;20968;-70
2021/08/02 10:18:43;;;;;;;50.25;12.40;;;;;;;30.34;47.36;98570.59;1719306;82;21740;-70
2021/08/02 10:21:11;;;;;;;10.70;4.60;;;;;;;30.28;47.28;98575.31;1717693;82;21534;-69
2021/08/02 10:23:38;;;;;;;5.87;4.10;;;;;;;30.20;47.00;98574.84;1737851;82;20964;-69
2021/08/02 10:26:28;;;;;;;7.37;3.95;;;;;;;30.20;47.80;98577.67;1719240;82;20928;-67
2021/08/02 10:28:58;;;;;;;45.45;6.72;;;;;;;30.29;47.92;98583.33;1712168;82;20889;-67
2021/08/02 10:31:27;;;;;;;11.28;4.67;;;;;;;30.42;47.39;98578.30;1708133;83;21114;-66
2021/08/02 10:33:54;;;;;;;12.63;4.70;;;;;;;30.41;45.97;98585.22;1708933;83;20888;-66
2021/08/02 10:36:22;;;;;;;7.65;3.72;;;;;;;30.43;46.74;98584.73;1708819;84;20964;-66
2021/08/02 10:38:51;;;;;;;12.20;4.65;;;;;;;30.62;47.68;98595.45;1708769;83;21050;-68
2021/08/02 10:41:31;;;;;;;10.75;5.00;;;;;;;30.83;46.17;98588.14;1708650;84;21042;-67
2021/08/02 10:44:01;;;;;;;10.53;4.12;;;;;;;31.14;45.19;98600.67;1708884;83;21117;-68
2021/08/02 10:46:28;;;;;;;11.08;4.75;;;;;;;31.35;44.31;98592.38;1707594;83;21423;-66
2021/08/02 10:49:11;;;;;;;14.83;6.47;;;;;;;31.47;44.10;98592.16;1708721;84;20896;-67
2021/08/02 10:51:50;;;;;;;7.00;4.17;;;;;;;31.68;44.58;98594.59;1708628;84;20939;-66
2021/08/02 10:54:20;;;;;;;14.25;4.50;;;;;;;31.94;43.32;98579.90;1708507;83;36069;-67
2021/08/02 10:56:49;;;;;;;6.12;3.92;;;;;;;32.00;43.72;98574.48;1689881;84;21769;-67
2021/08/02 10:59:20;;;;;;;8.30;3.95;;;;;;;32.22;42.92;98578.45;1708568;84;21003;-68
2021/08/02 11:01:50;;;;;;;9.43;4.15;;;;;;;32.31;43.36;98576.16;1709087;84;20889;-69
2021/08/02 11:04:17;;;;;;;10.53;4.45;;;;;;;32.32;43.02;98574.89;1709354;83;21411;-70
2021/08/02 11:06:46;;;;;;;13.48;4.12;;;;;;;32.44;42.53;98579.48;1709228;84;20940;-69
2021/08/02 11:09:17;;;;;;;11.63;3.92;;;;;;;32.72;41.15;98564.38;1708670;84;21104;-68
2021/08/02 11:11:44;;;;;;;8.35;3.77;;;;;;;33.02;41.50;98569.41;1707463;83;20985;-70
2021/08/02 11:14:14;;;;;;;5.92;3.65;;;;;;;33.18;41.73;98580.91;1708860;84;20916;-70
2021/08/02 11:16:44;;;;;;;10.18;4.08;;;;;;;33.31;40.11;98578.57;1719950;81;20936;-69
2021/08/02 11:19:23;;;;;;;10.03;3.35;;;;;;;33.17;39.92;98573.66;1719178;82;20964;-70
2021/08/02 11:22:01;;;;;;;11.12;4.05;;;;;;;32.92;40.26;98573.67;1709078;84;21144;-70
2021/08/02 11:24:30;;;;;;;7.83;3.87;;;;;;;32.65;40.72;98578.97;1708737;84;20990;-70
2021/08/02 11:27:01;;;;;;;9.58;3.58;;;;;;;32.22;40.67;98571.95;1715185;82;20992;-71
2021/08/02 11:29:30;;;;;;;8.43;3.55;;;;;;;31.71;42.25;98572.35;1744080;81;20992;-70
2021/08/02 11:32:09;;;;;;;13.62;3.75;;;;;;;31.41;43.18;98572.02;1701511;83;21029;-70
2021/08/02 11:34:37;;;;;;;8.95;2.75;;;;;;;31.27;44.29;98569.88;1708344;84;21098;-70